sensor_id;sensor_type;location;lat;lon;timestamp;pressure;altitude;pressure_sealevel;temperature;humidity
5283;BME280;15376;48.540;9.268;2023-04-16T00:01:49;97437.38;;;6.51;100.00
5283;BME280;15376;48.540;9.268;2023-04-16T00:04:15;97434.88;;;6.50;100.00
5283;BME280;15376;48.540;9.268;2023-04-16T00:06:40;97439.88;;;6.61;100.00
5283;BME280;15376;48.540;9.268;2023-04-16T00:09:06;97434.94;;;6.58;100.00
5283;BME280;15376;48.540;9.268;2023-04-16T00:11:31;97435.59;;;6.60;100.00
5283;BME280;15376;48.540;9.268;2023-04-16T00:13:56;97440.56;;;6.63;100.00
5283;BME280;15376;48.540;9.268;2023-04-16T00:16:22;97438.91;;;6.62;100.00
5283;BME280;15376;48.540;9.268;2023-04-16T00:18:47;97442.38;;;6.62;100.00
5283;BME280;15376;48.540;9.268;2023-04-16T00:21:12;97445.16;;;6.61;100.00
5283;BME280;15376;48.540;9.268;2023-04-16T00:23:38;97446.31;;;6.58;100.00
5283;BME280;15376;48.540;9.268;2023-04-16T00:26:03;97450.75;;;6.58;100.00
5283;BME280;15376;48.540;9.268;2023-04-16T00:28:28;97443.31;;;6.53;100.00
5283;BME280;15376;48.540;9.268;2023-04-16T00:30:54;97443.50;;;6.60;100.00
5283;BME280;15376;48.540;9.268;2023-04-16T00:33:20;97446.00;;;6.61;100.00
5283;BME280;15376;48.540;9.268;2023-04-16T00:35:47;97448.78;;;6.60;100.00
5283;BME280;15376;48.540;9.268;2023-04-16T00:38:13;97439.88;;;6.61;100.00
5283;BME280;15376;48.540;9.268;2023-04-16T00:40:38;97445.16;;;6.61;100.00
5283;BME280;15376;48.540;9.268;2023-04-16T00:43:04;97441.50;;;6.54;100.00
5283;BME280;15376;48.540;9.268;2023-04-16T00:45:30;97453.75;;;6.63;100.00
5283;BME280;15376;48.540;9.268;2023-04-16T00:47:55;97451.91;;;6.55;100.00
5283;BME280;15376;48.540;9.268;2023-04-16T00:50:22;97440.53;;;6.55;100.00
5283;BME280;15376;48.540;9.268;2023-04-16T00:52:48;97447.97;;;6.59;100.00
5283;BME280;15376;48.540;9.268;2023-04-16T00:55:15;97431.94;;;6.53;100.00
5283;BME280;15376;48.540;9.268;2023-04-16T00:57:41;97442.34;;;6.54;100.00
5283;BME280;15376;48.540;9.268;2023-04-16T01:00:07;97446.81;;;6.62;100.00
5283;BME280;15376;48.540;9.268;2023-04-16T01:02:34;97442.84;;;6.58;100.00
5283;BME280;15376;48.540;9.268;2023-04-16T01:05:00;97450.44;;;6.61;100.00
5283;BME280;15376;48.540;9.268;2023-04-16T01:07:26;97449.31;;;6.63;100.00
5283;BME280;15376;48.540;9.268;2023-04-16T01:09:51;97449.31;;;6.63;100.00
5283;BME280;15376;48.540;9.268;2023-04-16T01:12:16;97450.97;;;6.64;100.00
5283;BME280;15376;48.540;9.268;2023-04-16T01:14:42;97451.75;;;6.57;100.00
5283;BME280;15376;48.540;9.268;2023-04-16T01:17:07;97452.41;;;6.59;100.00
5283;BME280;15376;48.540;9.268;2023-04-16T01:19:33;97452.41;;;6.59;100.00
5283;BME280;15376;48.540;9.268;2023-04-16T01:22:02;97454.06;;;6.60;100.00
5283;BME280;15376;48.540;9.268;2023-04-16T01:24:27;97462.28;;;6.57;100.00
5283;BME280;15376;48.540;9.268;2023-04-16T01:26:59;97461.31;;;6.58;100.00
5283;BME280;15376;48.540;9.268;2023-04-16T01:29:25;97454.91;;;6.60;100.00
5283;BME280;15376;48.540;9.268;2023-04-16T01:31:51;97463.78;;;6.59;100.00
5283;BME280;15376;48.540;9.268;2023-04-16T01:34:16;97459.66;;;6.57;100.00
5283;BME280;15376;48.540;9.268;2023-04-16T01:36:42;97448.72;;;6.44;100.00
5283;BME280;15376;48.540;9.268;2023-04-16T01:39:07;97462.44;;;6.55;100.00
5283;BME280;15376;48.540;9.268;2023-04-16T01:41:35;97456.66;;;6.52;100.00
5283;BME280;15376;48.540;9.268;2023-04-16T01:44:01;97457.34;;;6.54;100.00
5283;BME280;15376;48.540;9.268;2023-04-16T01:46:27;97466.91;;;6.55;100.00
5283;BME280;15376;48.540;9.268;2023-04-16T01:48:53;97470.22;;;6.57;100.00
5283;BME280;15376;48.540;9.268;2023-04-16T01:51:20;97461.31;;;6.58;100.00
5283;BME280;15376;48.540;9.268;2023-04-16T01:53:46;97453.97;;;6.44;100.00
5283;BME280;15376;48.540;9.268;2023-04-16T01:56:11;97462.78;;;6.52;100.00
5283;BME280;15376;48.540;9.268;2023-04-16T01:58:37;97463.28;;;6.56;100.00
5283;BME280;15376;48.540;9.268;2023-04-16T02:01:03;97471.56;;;6.61;100.00
5283;BME280;15376;48.540;9.268;2023-04-16T02:03:30;97462.97;;;6.59;100.00
5283;BME280;15376;48.540;9.268;2023-04-16T02:05:55;97469.75;;;6.61;100.00
5283;BME280;15376;48.540;9.268;2023-04-16T02:08:21;97453.03;;;6.53;100.00
5283;BME280;15376;48.540;9.268;2023-04-16T02:10:48;97468.75;;;6.62;100.00
5283;BME280;15376;48.540;9.268;2023-04-16T02:13:14;97469.06;;;6.59;100.00
5283;BME280;15376;48.540;9.268;2023-04-16T02:15:46;97472.53;;;6.60;100.00
5283;BME280;15376;48.540;9.268;2023-04-16T02:18:12;97463.28;;;6.56;100.00
5283;BME280;15376;48.540;9.268;2023-04-16T02:20:44;97458.16;;;6.54;100.00
5283;BME280;15376;48.540;9.268;2023-04-16T02:23:09;97464.56;;;6.52;100.00
5283;BME280;15376;48.540;9.268;2023-04-16T02:25:44;97472.19;;;6.55;100.00
5283;BME280;15376;48.540;9.268;2023-04-16T02:28:12;97472.84;;;6.57;100.00
5283;BME280;15376;48.540;9.268;2023-04-16T02:30:38;97469.53;;;6.55;100.00
5283;BME280;15376;48.540;9.268;2023-04-16T02:33:05;97479.41;;;6.53;100.00
5283;BME280;15376;48.540;9.268;2023-04-16T02:35:32;97476.13;;;6.51;100.00
5283;BME280;15376;48.540;9.268;2023-04-16T02:37:57;97470.69;;;6.52;100.00
5283;BME280;15376;48.540;9.268;2023-04-16T02:40:23;97466.88;;;6.47;100.00
5283;BME280;15376;48.540;9.268;2023-04-16T02:42:48;97474.78;;;6.47;100.00
5283;BME280;15376;48.540;9.268;2023-04-16T02:45:14;97483.72;;;6.54;100.00
5283;BME280;15376;48.540;9.268;2023-04-16T02:47:39;97488.84;;;6.55;100.00
5283;BME280;15376;48.540;9.268;2023-04-16T02:50:05;97491.63;;;6.54;100.00
5283;BME280;15376;48.540;9.268;2023-04-16T02:52:31;97477.25;;;6.48;100.00
5283;BME280;15376;48.540;9.268;2023-04-16T02:54:57;97472.81;;;6.49;100.00
5283;BME280;15376;48.540;9.268;2023-04-16T02:57:22;97481.38;;;6.51;100.00
5283;BME280;15376;48.540;9.268;2023-04-16T02:59:47;97483.56;;;6.55;100.00
5283;BME280;15376;48.540;9.268;2023-04-16T03:02:13;97486.19;;;6.55;100.00
5283;BME280;15376;48.540;9.268;2023-04-16T03:04:38;97485.38;;;6.55;100.00
5283;BME280;15376;48.540;9.268;2023-04-16T03:07:03;97487.19;;;6.54;100.00
5283;BME280;15376;48.540;9.268;2023-04-16T03:09:29;97486.19;;;6.55;100.00
5283;BME280;15376;48.540;9.268;2023-04-16T03:11:54;97487.03;;;6.56;100.00
5283;BME280;15376;48.540;9.268;2023-04-16T03:14:20;97461.38;;;6.40;100.00
5283;BME280;15376;48.540;9.268;2023-04-16T03:16:46;97484.69;;;6.53;100.00
5283;BME280;15376;48.540;9.268;2023-04-16T03:19:11;97493.59;;;6.52;100.00
5283;BME280;15376;48.540;9.268;2023-04-16T03:21:36;97499.06;;;6.58;100.00
5283;BME280;15376;48.540;9.268;2023-04-16T03:24:02;97486.34;;;6.54;100.00
5283;BME280;15376;48.540;9.268;2023-04-16T03:26:27;97483.72;;;6.54;100.00
5283;BME280;15376;48.540;9.268;2023-04-16T03:28:52;97492.16;;;6.57;100.00
5283;BME280;15376;48.540;9.268;2023-04-16T03:31:18;97501.88;;;6.57;100.00
5283;BME280;15376;48.540;9.268;2023-04-16T03:33:43;97490.34;;;6.58;100.00
5283;BME280;15376;48.540;9.268;2023-04-16T03:36:08;97502.53;;;6.59;100.00
5283;BME280;15376;48.540;9.268;2023-04-16T03:38:34;97495.94;;;6.55;100.00
5283;BME280;15376;48.540;9.268;2023-04-16T03:40:59;97502.38;;;6.60;100.00
5283;BME280;15376;48.540;9.268;2023-04-16T03:43:25;97494.44;;;6.52;100.00
5283;BME280;15376;48.540;9.268;2023-04-16T03:45:50;97496.28;;;6.60;100.00
5283;BME280;15376;48.540;9.268;2023-04-16T03:48:15;97512.44;;;6.57;100.00
5283;BME280;15376;48.540;9.268;2023-04-16T03:50:44;97510.41;;;6.51;100.00
5283;BME280;15376;48.540;9.268;2023-04-16T03:53:10;97513.03;;;6.51;100.00
5283;BME280;15376;48.540;9.268;2023-04-16T03:55:36;97508.28;;;6.54;100.00
5283;BME280;15376;48.540;9.268;2023-04-16T03:58:01;97501.81;;;6.49;100.00
5283;BME280;15376;48.540;9.268;2023-04-16T04:00:28;97508.13;;;6.56;100.00
5283;BME280;15376;48.540;9.268;2023-04-16T04:02:54;97500.53;;;6.53;100.00
5283;BME280;15376;48.540;9.268;2023-04-16T04:05:19;97507.16;;;6.57;100.00
5283;BME280;15376;48.540;9.268;2023-04-16T04:07:44;97512.13;;;6.60;100.00
5283;BME280;15376;48.540;9.268;2023-04-16T04:10:10;97516.25;;;6.62;100.00
5283;BME280;15376;48.540;9.268;2023-04-16T04:12:35;97507.16;;;6.57;100.00
5283;BME280;15376;48.540;9.268;2023-04-16T04:15:00;97510.16;;;6.62;100.00
5283;BME280;15376;48.540;9.268;2023-04-16T04:17:26;97497.22;;;6.51;100.00
5283;BME280;15376;48.540;9.268;2023-04-16T04:19:51;97519.72;;;6.63;100.00
5283;BME280;15376;48.540;9.268;2023-04-16T04:22:18;97510.47;;;6.59;100.00
5283;BME280;15376;48.540;9.268;2023-04-16T04:24:43;97519.34;;;6.58;100.00
5283;BME280;15376;48.540;9.268;2023-04-16T04:27:09;97527.63;;;6.63;100.00
5283;BME280;15376;48.540;9.268;2023-04-16T04:29:34;97528.31;;;6.65;100.00
5283;BME280;15376;48.540;9.268;2023-04-16T04:32:00;97528.41;;;6.55;100.00
5283;BME280;15376;48.540;9.268;2023-04-16T04:34:25;97522.97;;;6.57;100.00
5283;BME280;15376;48.540;9.268;2023-04-16T04:36:50;97528.88;;;6.51;100.00
5283;BME280;15376;48.540;9.268;2023-04-16T04:39:16;97529.19;;;6.48;100.00
5283;BME280;15376;48.540;9.268;2023-04-16T04:41:41;97532.84;;;6.55;100.00
5283;BME280;15376;48.540;9.268;2023-04-16T04:44:07;97521.28;;;6.48;100.00
5283;BME280;15376;48.540;9.268;2023-04-16T04:46:32;97537.00;;;6.57;100.00
5283;BME280;15376;48.540;9.268;2023-04-16T04:48:57;97529.38;;;6.54;100.00
5283;BME280;15376;48.540;9.268;2023-04-16T04:51:23;97545.59;;;6.59;100.00
5283;BME280;15376;48.540;9.268;2023-04-16T04:53:48;97528.88;;;6.51;100.00
5283;BME280;15376;48.540;9.268;2023-04-16T04:56:13;97531.66;;;6.49;100.00
5283;BME280;15376;48.540;9.268;2023-04-16T04:58:40;97541.09;;;6.52;100.00
5283;BME280;15376;48.540;9.268;2023-04-16T05:01:05;97539.72;;;6.48;100.00
5283;BME280;15376;48.540;9.268;2023-04-16T05:03:31;97550.34;;;6.56;100.00
5283;BME280;15376;48.540;9.268;2023-04-16T05:05:56;97546.06;;;6.55;100.00
5283;BME280;15376;48.540;9.268;2023-04-16T05:08:21;97552.31;;;6.54;100.00
5283;BME280;15376;48.540;9.268;2023-04-16T05:10:47;97551.63;;;6.52;100.00
5283;BME280;15376;48.540;9.268;2023-04-16T05:13:12;97554.78;;;6.55;100.00
5283;BME280;15376;48.540;9.268;2023-04-16T05:15:38;97554.63;;;6.57;100.00
5283;BME280;15376;48.540;9.268;2023-04-16T05:18:03;97566.00;;;6.57;100.00
5283;BME280;15376;48.540;9.268;2023-04-16T05:20:28;97562.56;;;6.57;100.00
5283;BME280;15376;48.540;9.268;2023-04-16T05:22:54;97571.13;;;6.59;100.00
5283;BME280;15376;48.540;9.268;2023-04-16T05:25:20;97568.50;;;6.59;100.00
5283;BME280;15376;48.540;9.268;2023-04-16T05:27:45;97572.59;;;6.53;100.00
5283;BME280;15376;48.540;9.268;2023-04-16T05:30:11;97560.53;;;6.51;100.00
5283;BME280;15376;48.540;9.268;2023-04-16T05:32:38;97577.91;;;6.61;100.00
5283;BME280;15376;48.540;9.268;2023-04-16T05:35:03;97579.56;;;6.62;100.00
5283;BME280;15376;48.540;9.268;2023-04-16T05:37:29;97572.44;;;6.55;100.00
5283;BME280;15376;48.540;9.268;2023-04-16T05:39:54;97583.88;;;6.63;100.00
5283;BME280;15376;48.540;9.268;2023-04-16T05:42:20;97588.31;;;6.63;100.00
5283;BME280;15376;48.540;9.268;2023-04-16T05:44:45;97576.88;;;6.54;100.00
5283;BME280;15376;48.540;9.268;2023-04-16T05:47:10;97598.72;;;6.64;100.00
5283;BME280;15376;48.540;9.268;2023-04-16T05:49:36;97587.94;;;6.58;100.00
5283;BME280;15376;48.540;9.268;2023-04-16T05:52:02;97563.44;;;6.40;100.00
5283;BME280;15376;48.540;9.268;2023-04-16T05:54:28;97588.47;;;6.61;100.00
5283;BME280;15376;48.540;9.268;2023-04-16T05:56:53;97594.41;;;6.63;100.00
5283;BME280;15376;48.540;9.268;2023-04-16T05:59:19;97600.38;;;6.65;100.00
5283;BME280;15376;48.540;9.268;2023-04-16T06:01:44;97601.50;;;6.63;100.00
5283;BME280;15376;48.540;9.268;2023-04-16T06:04:09;97601.50;;;6.63;100.00
5283;BME280;15376;48.540;9.268;2023-04-16T06:06:35;97598.72;;;6.64;100.00
5283;BME280;15376;48.540;9.268;2023-04-16T06:09:01;97591.94;;;6.62;100.00
5283;BME280;15376;48.540;9.268;2023-04-16T06:11:28;97613.09;;;6.70;100.00
5283;BME280;15376;48.540;9.268;2023-04-16T06:13:54;97602.03;;;6.66;100.00
5283;BME280;15376;48.540;9.268;2023-04-16T06:16:19;97597.22;;;6.62;100.00
5283;BME280;15376;48.540;9.268;2023-04-16T06:18:44;97607.31;;;6.66;100.00
5283;BME280;15376;48.540;9.268;2023-04-16T06:21:10;97613.72;;;6.64;100.00
5283;BME280;15376;48.540;9.268;2023-04-16T06:23:35;97606.47;;;6.66;100.00
5283;BME280;15376;48.540;9.268;2023-04-16T06:26:00;97615.44;;;6.73;100.00
5283;BME280;15376;48.540;9.268;2023-04-16T06:28:26;97625.31;;;6.71;100.00
5283;BME280;15376;48.540;9.268;2023-04-16T06:30:51;97618.06;;;6.73;100.00
5283;BME280;15376;48.540;9.268;2023-04-16T06:33:16;97612.06;;;6.63;100.00
5283;BME280;15376;48.540;9.268;2023-04-16T06:35:42;97617.03;;;6.66;100.00
5283;BME280;15376;48.540;9.268;2023-04-16T06:38:07;97611.22;;;6.62;100.00
5283;BME280;15376;48.540;9.268;2023-04-16T06:40:33;97617.03;;;6.66;100.00
5283;BME280;15376;48.540;9.268;2023-04-16T06:42:58;97602.59;;;6.52;100.00
5283;BME280;15376;48.540;9.268;2023-04-16T06:45:24;97607.63;;;6.63;100.00
5283;BME280;15376;48.540;9.268;2023-04-16T06:47:49;97616.72;;;6.69;100.00
5283;BME280;15376;48.540;9.268;2023-04-16T06:50:16;97620.03;;;6.71;100.00
5283;BME280;15376;48.540;9.268;2023-04-16T06:52:41;97625.00;;;6.74;100.00
5283;BME280;15376;48.540;9.268;2023-04-16T06:55:07;97629.97;;;6.77;100.00
5283;BME280;15376;48.540;9.268;2023-04-16T06:57:34;97624.19;;;6.74;100.00
5283;BME280;15376;48.540;9.268;2023-04-16T06:59:59;97630.91;;;6.68;100.00
5283;BME280;15376;48.540;9.268;2023-04-16T07:02:25;97635.19;;;6.69;100.00
5283;BME280;15376;48.540;9.268;2023-04-16T07:04:50;97638.88;;;6.76;100.00
5283;BME280;15376;48.540;9.268;2023-04-16T07:07:17;97631.63;;;6.78;100.00
5283;BME280;15376;48.540;9.268;2023-04-16T07:09:42;97630.28;;;6.74;100.00
5283;BME280;15376;48.540;9.268;2023-04-16T07:12:07;97626.66;;;6.75;100.00
5283;BME280;15376;48.540;9.268;2023-04-16T07:14:33;97641.53;;;6.84;100.00
5283;BME280;15376;48.540;9.268;2023-04-16T07:16:58;97626.34;;;6.78;100.00
5283;BME280;15376;48.540;9.268;2023-04-16T07:19:24;97634.44;;;6.85;100.00
5283;BME280;15376;48.540;9.268;2023-04-16T07:21:49;97635.59;;;6.82;100.00
5283;BME280;15376;48.540;9.268;2023-04-16T07:24:15;97637.91;;;6.77;100.00
5283;BME280;15376;48.540;9.268;2023-04-16T07:26:41;97638.56;;;6.79;100.00
5283;BME280;15376;48.540;9.268;2023-04-16T07:29:06;97635.25;;;6.77;100.00
5283;BME280;15376;48.540;9.268;2023-04-16T07:31:32;97647.50;;;6.86;100.00
5283;BME280;15376;48.540;9.268;2023-04-16T07:33:57;97648.16;;;6.88;100.00
5283;BME280;15376;48.540;9.268;2023-04-16T07:36:23;97641.22;;;6.87;100.00
5283;BME280;15376;48.540;9.268;2023-04-16T07:38:48;97654.50;;;6.95;100.00
5283;BME280;15376;48.540;9.268;2023-04-16T07:41:14;97654.13;;;6.90;100.00
5283;BME280;15376;48.540;9.268;2023-04-16T07:43:39;97643.66;;;6.81;100.00
5283;BME280;15376;48.540;9.268;2023-04-16T07:46:05;97646.81;;;6.84;100.00
5283;BME280;15376;48.540;9.268;2023-04-16T07:48:30;97659.41;;;6.90;100.00
5283;BME280;15376;48.540;9.268;2023-04-16T07:50:56;97657.38;;;6.84;100.00
5283;BME280;15376;48.540;9.268;2023-04-16T07:53:21;97656.75;;;6.90;100.00
5283;BME280;15376;48.540;9.268;2023-04-16T07:55:47;97658.22;;;6.85;100.00
5283;BME280;15376;48.540;9.268;2023-04-16T07:58:12;97661.38;;;6.88;100.00
5283;BME280;15376;48.540;9.268;2023-04-16T08:00:38;97670.19;;;6.97;100.00
5283;BME280;15376;48.540;9.268;2023-04-16T08:03:03;97674.38;;;7.08;100.00
5283;BME280;15376;48.540;9.268;2023-04-16T08:05:29;97677.22;;;7.14;100.00
5283;BME280;15376;48.540;9.268;2023-04-16T08:07:54;97664.63;;;7.08;100.00
5283;BME280;15376;48.540;9.268;2023-04-16T08:10:20;97677.72;;;7.18;100.00
5283;BME280;15376;48.540;9.268;2023-04-16T08:12:45;97678.03;;;7.15;100.00
5283;BME280;15376;48.540;9.268;2023-04-16T08:15:11;97670.75;;;7.09;100.00
5283;BME280;15376;48.540;9.268;2023-04-16T08:17:36;97684.50;;;7.20;100.00
5283;BME280;15376;48.540;9.268;2023-04-16T08:20:02;97681.69;;;7.22;100.00
5283;BME280;15376;48.540;9.268;2023-04-16T08:22:28;97694.63;;;7.33;100.00
5283;BME280;15376;48.540;9.268;2023-04-16T08:24:53;97678.91;;;7.23;100.00
5283;BME280;15376;48.540;9.268;2023-04-16T08:27:18;97693.44;;;7.19;100.00
5283;BME280;15376;48.540;9.268;2023-04-16T08:29:44;97689.97;;;7.19;100.00
5283;BME280;15376;48.540;9.268;2023-04-16T08:32:09;97694.56;;;7.17;100.00
5283;BME280;15376;48.540;9.268;2023-04-16T08:34:36;97700.97;;;7.14;100.00
5283;BME280;15376;48.540;9.268;2023-04-16T08:37:01;97699.50;;;7.20;100.00
5283;BME280;15376;48.540;9.268;2023-04-16T08:39:26;97706.44;;;7.21;100.00
5283;BME280;15376;48.540;9.268;2023-04-16T08:41:52;97706.44;;;7.21;100.00
5283;BME280;15376;48.540;9.268;2023-04-16T08:44:26;97710.91;;;7.20;100.00
5283;BME280;15376;48.540;9.268;2023-04-16T08:46:53;97707.78;;;7.25;100.00
5283;BME280;15376;48.540;9.268;2023-04-16T08:49:26;97701.88;;;7.31;100.00
5283;BME280;15376;48.540;9.268;2023-04-16T08:51:54;97712.13;;;7.34;100.00
5283;BME280;15376;48.540;9.268;2023-04-16T08:56:50;97703.53;;;7.32;100.00
5283;BME280;15376;48.540;9.268;2023-04-16T08:59:16;97722.41;;;7.37;100.00
5283;BME280;15376;48.540;9.268;2023-04-16T09:01:42;97720.06;;;7.34;100.00
5283;BME280;15376;48.540;9.268;2023-04-16T09:04:07;97703.84;;;7.29;100.00
5283;BME280;15376;48.540;9.268;2023-04-16T09:06:33;97711.22;;;7.43;100.00
5283;BME280;15376;48.540;9.268;2023-04-16T09:09:00;97719.66;;;7.47;100.00
5283;BME280;15376;48.540;9.268;2023-04-16T09:11:28;97728.09;;;7.50;100.00
5283;BME280;15376;48.540;9.268;2023-04-16T09:13:54;97725.81;;;7.63;100.00
5283;BME280;15376;48.540;9.268;2023-04-16T09:16:22;97732.03;;;7.46;100.00
5283;BME280;15376;48.540;9.268;2023-04-16T09:18:48;97722.09;;;7.40;100.00
5283;BME280;15376;48.540;9.268;2023-04-16T09:21:15;97736.91;;;7.59;100.00
5283;BME280;15376;48.540;9.268;2023-04-16T09:23:44;97735.41;;;7.64;100.00
5283;BME280;15376;48.540;9.268;2023-04-16T09:26:09;97740.06;;;7.70;100.00
5283;BME280;15376;48.540;9.268;2023-04-16T09:28:45;97740.38;;;7.67;100.00
5283;BME280;15376;48.540;9.268;2023-04-16T09:31:16;97737.06;;;7.65;100.00
5283;BME280;15376;48.540;9.268;2023-04-16T09:33:43;97746.72;;;7.83;100.00
5283;BME280;15376;48.540;9.268;2023-04-16T09:36:09;97741.09;;;7.78;100.00
5283;BME280;15376;48.540;9.268;2023-04-16T09:38:51;97736.38;;;7.97;100.00
5283;BME280;15376;48.540;9.268;2023-04-16T09:41:17;97739.84;;;7.98;100.00
5283;BME280;15376;48.540;9.268;2023-04-16T09:44:00;97731.25;;;7.96;100.00
5283;BME280;15376;48.540;9.268;2023-04-16T09:46:30;97738.19;;;8.05;100.00
5283;BME280;15376;48.540;9.268;2023-04-16T09:48:56;97738.91;;;8.15;100.00
5283;BME280;15376;48.540;9.268;2023-04-16T09:51:21;97748.84;;;8.21;100.00
5283;BME280;15376;48.540;9.268;2023-04-16T09:53:50;97739.56;;;8.17;100.00
5283;BME280;15376;48.540;9.268;2023-04-16T09:56:16;97742.88;;;8.19;100.00
5283;BME280;15376;48.540;9.268;2023-04-16T09:58:41;97724.34;;;8.11;100.00
5283;BME280;15376;48.540;9.268;2023-04-16T10:01:09;97748.09;;;8.53;100.00
5283;BME280;15376;48.540;9.268;2023-04-16T10:03:39;97742.81;;;8.61;100.00
5283;BME280;15376;48.540;9.268;2023-04-16T10:08:43;97742.63;;;8.55;100.00
5283;BME280;15376;48.540;9.268;2023-04-16T10:11:09;97737.84;;;8.50;100.00
5283;BME280;15376;48.540;9.268;2023-04-16T10:13:34;97738.25;;;8.21;100.00
5283;BME280;15376;48.540;9.268;2023-04-16T10:16:00;97756.50;;;8.32;100.00
5283;BME280;15376;48.540;9.268;2023-04-16T10:18:26;97757.53;;;8.40;100.00
5283;BME280;15376;48.540;9.268;2023-04-16T10:20:51;97758.50;;;8.47;100.00
5283;BME280;15376;48.540;9.268;2023-04-16T10:23:19;97760.19;;;8.56;100.00
5283;BME280;15376;48.540;9.268;2023-04-16T10:25:45;97764.16;;;8.60;100.00
5283;BME280;15376;48.540;9.268;2023-04-16T10:28:12;97765.97;;;8.59;100.00
5283;BME280;15376;48.540;9.268;2023-04-16T10:30:38;97755.88;;;8.39;100.00
5283;BME280;15376;48.540;9.268;2023-04-16T10:33:04;97761.16;;;8.47;100.00
5283;BME280;15376;48.540;9.268;2023-04-16T10:35:29;97758.00;;;8.43;100.00
5283;BME280;15376;48.540;9.268;2023-04-16T10:38:25;97764.78;;;8.46;100.00
5283;BME280;15376;48.540;9.268;2023-04-16T10:41:04;97764.94;;;8.44;100.00
5283;BME280;15376;48.540;9.268;2023-04-16T10:43:33;97761.00;;;8.48;100.00
5283;BME280;15376;48.540;9.268;2023-04-16T10:46:25;97766.09;;;8.42;100.00
5283;BME280;15376;48.540;9.268;2023-04-16T10:48:55;97759.56;;;8.20;100.00
5283;BME280;15376;48.540;9.268;2023-04-16T10:51:27;97769.63;;;8.08;100.00
5283;BME280;15376;48.540;9.268;2023-04-16T10:53:54;97769.25;;;8.03;100.00
5283;BME280;15376;48.540;9.268;2023-04-16T10:56:26;97760.19;;;8.06;100.00
5283;BME280;15376;48.540;9.268;2023-04-16T10:58:54;97773.25;;;8.07;100.00
5283;BME280;15376;48.540;9.268;2023-04-16T11:01:29;97763.00;;;8.04;100.00
5283;BME280;15376;48.540;9.268;2023-04-16T11:03:54;97754.75;;;7.99;100.00
5283;BME280;15376;48.540;9.268;2023-04-16T11:06:24;97767.97;;;8.07;100.00
5283;BME280;15376;48.540;9.268;2023-04-16T11:08:51;97773.63;;;8.20;100.00
5283;BME280;15376;48.540;9.268;2023-04-16T11:11:17;97771.97;;;8.19;100.00
5283;BME280;15376;48.540;9.268;2023-04-16T11:13:43;97770.66;;;8.23;100.00
5283;BME280;15376;48.540;9.268;2023-04-16T11:16:11;97772.50;;;8.23;100.00
5283;BME280;15376;48.540;9.268;2023-04-16T11:18:38;97770.34;;;8.26;100.00
5283;BME280;15376;48.540;9.268;2023-04-16T11:21:08;97775.03;;;8.32;100.00
5283;BME280;15376;48.540;9.268;2023-04-16T11:23:45;97769.88;;;8.31;100.00
5283;BME280;15376;48.540;9.268;2023-04-16T11:26:25;97769.75;;;8.32;100.00
5283;BME280;15376;48.540;9.268;2023-04-16T11:28:52;97774.66;;;8.27;100.00
5283;BME280;15376;48.540;9.268;2023-04-16T11:31:18;97777.13;;;8.29;100.00
5283;BME280;15376;48.540;9.268;2023-04-16T11:33:43;97774.16;;;8.24;100.00
5283;BME280;15376;48.540;9.268;2023-04-16T11:36:09;97772.63;;;8.13;100.00
5283;BME280;15376;48.540;9.268;2023-04-16T11:38:35;97787.53;;;8.22;100.00
5283;BME280;15376;48.540;9.268;2023-04-16T11:41:01;97778.28;;;8.26;100.00
5283;BME280;15376;48.540;9.268;2023-04-16T11:43:27;97782.25;;;8.22;100.00
5283;BME280;15376;48.540;9.268;2023-04-16T11:46:01;97790.53;;;8.27;100.00
5283;BME280;15376;48.540;9.268;2023-04-16T11:48:51;97788.69;;;8.20;100.00
5283;BME280;15376;48.540;9.268;2023-04-16T11:51:17;97787.22;;;8.25;100.00
5283;BME280;15376;48.540;9.268;2023-04-16T11:53:50;97786.88;;;8.20;100.00
5283;BME280;15376;48.540;9.268;2023-04-16T11:56:27;97781.19;;;8.07;100.00
5283;BME280;15376;48.540;9.268;2023-04-16T11:59:10;97793.00;;;8.29;100.00
5283;BME280;15376;48.540;9.268;2023-04-16T12:01:37;97793.38;;;8.42;100.00
5283;BME280;15376;48.540;9.268;2023-04-16T12:04:03;97791.28;;;8.62;100.00
5283;BME280;15376;48.540;9.268;2023-04-16T12:06:28;97789.63;;;8.53;100.00
5283;BME280;15376;48.540;9.268;2023-04-16T12:08:56;97785.81;;;8.39;100.00
5283;BME280;15376;48.540;9.268;2023-04-16T12:11:36;97786.91;;;8.28;100.00
5283;BME280;15376;48.540;9.268;2023-04-16T12:14:06;97778.94;;;8.20;100.00
5283;BME280;15376;48.540;9.268;2023-04-16T12:16:32;97787.22;;;8.25;100.00
5283;BME280;15376;48.540;9.268;2023-04-16T12:18:58;97791.88;;;8.31;100.00
5283;BME280;15376;48.540;9.268;2023-04-16T12:21:43;97781.75;;;8.27;100.00
5283;BME280;15376;48.540;9.268;2023-04-16T12:24:12;97788.34;;;8.23;100.00
5283;BME280;15376;48.540;9.268;2023-04-16T12:26:43;97798.16;;;8.30;100.00
5283;BME280;15376;48.540;9.268;2023-04-16T12:29:17;97800.13;;;8.28;100.00
5283;BME280;15376;48.540;9.268;2023-04-16T12:31:46;97794.47;;;8.23;100.00
5283;BME280;15376;48.540;9.268;2023-04-16T12:34:12;97805.06;;;8.23;100.00
5283;BME280;15376;48.540;9.268;2023-04-16T12:36:39;97809.53;;;8.23;100.00
5283;BME280;15376;48.540;9.268;2023-04-16T12:39:05;97787.69;;;8.21;100.00
5283;BME280;15376;48.540;9.268;2023-04-16T12:41:31;97790.75;;;8.34;100.00
5283;BME280;15376;48.540;9.268;2023-04-16T12:44:14;97800.84;;;8.47;100.00
5283;BME280;15376;48.540;9.268;2023-04-16T12:46:41;97784.31;;;8.45;100.00
5283;BME280;15376;48.540;9.268;2023-04-16T12:49:07;97801.88;;;8.62;100.00
5283;BME280;15376;48.540;9.268;2023-04-16T12:51:35;97782.03;;;8.58;100.00
5283;BME280;15376;48.540;9.268;2023-04-16T12:54:03;97803.06;;;8.67;100.00
5283;BME280;15376;48.540;9.268;2023-04-16T12:56:29;97773.72;;;8.53;100.00
5283;BME280;15376;48.540;9.268;2023-04-16T12:58:54;97801.56;;;8.73;100.00
5283;BME280;15376;48.540;9.268;2023-04-16T13:01:20;97795.63;;;8.79;100.00
5283;BME280;15376;48.540;9.268;2023-04-16T13:03:46;97788.34;;;8.97;100.00
5283;BME280;15376;48.540;9.268;2023-04-16T13:06:13;97794.28;;;8.83;100.00
5283;BME280;15376;48.540;9.268;2023-04-16T13:08:39;97782.06;;;8.74;100.00
5283;BME280;15376;48.540;9.268;2023-04-16T13:11:05;97793.81;;;8.72;100.00
5283;BME280;15376;48.540;9.268;2023-04-16T13:13:31;97777.06;;;8.63;100.00